createdAt,value
2023-01-26T00:02:37.708Z,2.47
2023-01-26T00:07:42.928Z,2.87
2023-01-26T00:12:45.162Z,3.07
2023-01-26T00:17:47.304Z,3.40
2023-01-26T00:22:49.587Z,3.50
2023-01-26T00:27:51.861Z,2.77
2023-01-26T00:32:54.120Z,3.53
2023-01-26T00:37:56.395Z,3.27
2023-01-26T00:42:59.604Z,4.17
2023-01-26T00:48:02.104Z,4.57
2023-01-26T00:53:04.916Z,3.93
2023-01-26T00:58:08.222Z,3.33
2023-01-26T01:03:10.413Z,3.07
2023-01-26T01:08:13.385Z,3.43
2023-01-26T01:13:15.550Z,3.70
2023-01-26T01:18:17.634Z,2.57
2023-01-26T01:23:21.638Z,2.97
2023-01-26T01:28:23.957Z,2.70
2023-01-26T01:33:26.090Z,2.80
2023-01-26T01:38:28.406Z,2.63
2023-01-26T01:43:30.762Z,3.37
2023-01-26T01:48:51.385Z,3.17
2023-01-26T01:53:54.805Z,2.97
2023-01-26T01:58:58.568Z,3.20
2023-01-26T02:04:02.463Z,2.73
2023-01-26T02:09:06.350Z,3.00
2023-01-26T02:14:10.120Z,3.60
2023-01-26T02:19:23.358Z,2.83
2023-01-26T02:24:34.685Z,3.93
2023-01-26T02:29:36.837Z,3.17
2023-01-26T02:34:39.098Z,3.10
2023-01-26T02:39:59.091Z,3.63
2023-01-26T02:45:01.343Z,3.67
2023-01-26T02:50:05.532Z,3.70
2023-01-26T02:55:28.826Z,4.27
2023-01-26T03:00:35.184Z,3.53
2023-01-26T03:05:38.278Z,3.83
2023-01-26T03:10:53.768Z,3.60
2023-01-26T03:15:55.980Z,4.00
2023-01-26T03:21:18.500Z,2.63
2023-01-26T03:26:39.598Z,3.40
2023-01-26T03:31:42.755Z,3.30
2023-01-26T03:36:45.053Z,3.47
2023-01-26T03:42:08.305Z,3.20
2023-01-26T03:47:29.335Z,3.83
2023-01-26T03:52:51.598Z,4.20
2023-01-26T03:57:54.599Z,3.80
2023-01-26T04:03:15.339Z,3.33
2023-01-26T04:08:30.647Z,3.50
2023-01-26T04:13:54.898Z,3.70
2023-01-26T04:19:22.085Z,3.90
2023-01-26T04:24:24.896Z,4.13
2023-01-26T04:29:31.029Z,4.50
2023-01-26T04:34:33.208Z,3.60
2023-01-26T04:39:37.698Z,3.57
2023-01-26T04:44:40.760Z,4.17
2023-01-26T04:49:43.993Z,4.13
2023-01-26T04:54:47.569Z,3.20
2023-01-26T04:59:50.037Z,4.00
2023-01-26T05:04:54.157Z,4.20
2023-01-26T05:09:56.932Z,3.63
2023-01-26T05:15:13.666Z,4.93
2023-01-26T05:20:41.963Z,3.43
2023-01-26T05:25:51.029Z,4.78
2023-01-26T05:30:53.531Z,3.47
2023-01-26T05:35:56.839Z,3.53
2023-01-26T05:40:59.627Z,3.73
2023-01-26T05:46:03.115Z,3.67
2023-01-26T05:51:05.871Z,3.70
2023-01-26T05:56:10.306Z,4.50
2023-01-26T06:01:18.232Z,4.43
2023-01-26T06:06:26.296Z,3.30
2023-01-26T06:11:37.074Z,3.80
2023-01-26T06:17:08.646Z,3.73
2023-01-26T06:22:13.003Z,4.33
2023-01-26T06:27:19.505Z,3.23
2023-01-26T06:32:25.610Z,3.60
2023-01-26T06:37:30.129Z,3.47
2023-01-26T06:42:32.501Z,3.57
2023-01-26T06:47:36.740Z,3.83
2023-01-26T06:52:42.328Z,3.93
2023-01-26T06:58:07.139Z,4.07
2023-01-26T07:03:44.588Z,3.77
2023-01-26T07:08:47.064Z,4.70
2023-01-26T07:13:49.226Z,3.73
2023-01-26T07:18:53.303Z,3.93
2023-01-26T07:23:56.232Z,4.33
2023-01-26T07:28:58.507Z,3.73
2023-01-26T07:34:00.658Z,4.07
2023-01-26T07:39:02.948Z,4.90
2023-01-26T07:44:08.407Z,4.17
2023-01-26T07:49:12.125Z,4.43
2023-01-26T07:54:14.296Z,4.67
2023-01-26T07:59:19.550Z,4.80
2023-01-26T08:04:24.565Z,5.07
2023-01-26T08:09:26.833Z,4.90
2023-01-26T08:14:46.895Z,4.83
2023-01-26T08:19:50.430Z,4.73
2023-01-26T08:24:52.630Z,4.87
2023-01-26T08:29:55.132Z,4.27
2023-01-26T08:34:57.469Z,5.10
2023-01-26T08:40:02.426Z,4.83
2023-01-26T08:45:09.049Z,4.77
2023-01-26T08:50:14.101Z,5.30
2023-01-26T08:55:16.449Z,4.70
2023-01-26T09:00:19.114Z,5.50
2023-01-26T09:05:21.208Z,4.57
2023-01-26T09:10:23.889Z,4.50
2023-01-26T09:15:26.503Z,4.63
2023-01-26T09:20:28.694Z,4.37
2023-01-26T09:25:31.182Z,4.43
2023-01-26T09:30:33.781Z,4.23
2023-01-26T09:35:35.969Z,4.60
2023-01-26T09:40:44.396Z,3.10
2023-01-26T09:46:17.680Z,4.77
2023-01-26T09:51:24.248Z,3.93
2023-01-26T09:56:29.269Z,5.27
2023-01-26T10:01:42.119Z,3.63
2023-01-26T10:06:44.585Z,4.00
2023-01-26T10:11:58.958Z,3.83
2023-01-26T10:17:01.676Z,3.33
2023-01-26T10:22:14.226Z,4.37
2023-01-26T10:27:16.635Z,3.70
2023-01-26T10:32:18.833Z,4.10
2023-01-26T10:37:21.764Z,3.97
2023-01-26T10:42:24.567Z,4.13
2023-01-26T10:47:27.083Z,4.40
2023-01-26T10:52:29.377Z,4.50
2023-01-26T10:57:33.466Z,4.17
2023-01-26T11:02:37.208Z,4.03
2023-01-26T11:07:44.407Z,3.60
2023-01-26T11:12:46.672Z,3.60
2023-01-26T11:18:00.110Z,3.63
2023-01-26T11:23:41.431Z,3.87
2023-01-26T11:28:59.123Z,3.07
2023-01-26T11:34:21.589Z,3.97
2023-01-26T11:39:54.269Z,4.93
2023-01-26T11:45:17.861Z,3.53
2023-01-26T11:50:46.476Z,4.33
2023-01-26T11:55:48.715Z,3.90
2023-01-26T12:00:57.635Z,3.20
2023-01-26T12:06:05.061Z,4.77
2023-01-26T12:11:23.093Z,5.23
2023-01-26T12:16:39.297Z,4.10
2023-01-26T12:21:45.212Z,4.53
2023-01-26T12:26:49.516Z,3.37
2023-01-26T12:32:06.293Z,4.30
2023-01-26T12:37:42.678Z,4.93
2023-01-26T12:42:47.720Z,4.03
2023-01-26T12:47:55.973Z,3.80
2023-01-26T12:52:59.915Z,4.10
2023-01-26T12:58:05.438Z,4.13
2023-01-26T13:03:21.191Z,4.17
2023-01-26T13:08:32.485Z,4.33
2023-01-26T13:13:53.822Z,4.00
2023-01-26T13:18:57.492Z,5.40
2023-01-26T13:23:59.767Z,6.03
2023-01-26T13:29:20.773Z,5.23
2023-01-26T13:34:28.797Z,6.87
2023-01-26T13:39:38.772Z,5.90
2023-01-26T13:44:45.868Z,5.80
2023-01-26T13:49:50.706Z,5.50
2023-01-26T13:54:54.707Z,6.20
2023-01-26T14:00:02.227Z,5.03
2023-01-26T14:05:22.421Z,5.73
2023-01-26T14:10:24.838Z,5.03
2023-01-26T14:15:29.417Z,5.80
2023-01-26T14:20:38.221Z,6.23
2023-01-26T14:25:50.075Z,7.55
2023-01-26T14:30:58.699Z,6.13
2023-01-26T14:36:03.168Z,7.87
2023-01-26T14:41:11.399Z,6.80
2023-01-26T14:46:35.188Z,8.00
2023-01-26T14:51:37.811Z,6.33
2023-01-26T14:56:40.707Z,7.50
2023-01-26T15:01:42.981Z,6.57
2023-01-26T15:06:45.089Z,6.20
2023-01-26T15:12:12.270Z,7.37
2023-01-26T15:17:37.791Z,7.73
2023-01-26T15:22:40.056Z,6.77
2023-01-26T15:27:42.517Z,7.33
2023-01-26T15:32:46.059Z,6.87
2023-01-26T15:37:49.355Z,6.87
2023-01-26T15:42:51.757Z,7.07
2023-01-26T15:47:55.177Z,5.50
2023-01-26T15:52:58.405Z,6.43
2023-01-26T15:58:01.218Z,7.37
2023-01-26T16:03:10.318Z,5.53
2023-01-26T16:08:12.608Z,6.25
2023-01-26T16:13:19.645Z,7.13
2023-01-26T16:18:25.805Z,7.03
2023-01-26T16:23:29.387Z,6.30
2023-01-26T16:28:31.697Z,6.23
2023-01-26T16:33:37.894Z,7.10
2023-01-26T16:38:47.018Z,6.07
2023-01-26T16:43:49.269Z,6.50
2023-01-26T16:48:51.968Z,6.33
2023-01-26T16:53:54.921Z,6.13
2023-01-26T16:58:57.116Z,5.33
2023-01-26T17:03:59.536Z,5.80
2023-01-26T17:09:01.743Z,5.00
2023-01-26T17:14:04.008Z,6.03
2023-01-26T17:19:08.867Z,6.10
2023-01-26T17:24:11.494Z,6.30
2023-01-26T17:29:14.436Z,6.00
2023-01-26T17:34:16.829Z,6.60
2023-01-26T17:39:19.472Z,5.37
2023-01-26T17:44:21.887Z,6.73
2023-01-26T17:49:26.952Z,6.83
2023-01-26T17:54:29.100Z,6.50
2023-01-26T17:59:31.294Z,5.27
2023-01-26T18:04:33.514Z,5.07
2023-01-26T18:09:35.713Z,6.03
2023-01-26T18:14:37.921Z,5.83
2023-01-26T18:19:40.259Z,6.67
2023-01-26T18:24:42.452Z,5.97
2023-01-26T18:29:44.757Z,6.30
2023-01-26T18:34:47.400Z,5.63
2023-01-26T18:39:52.606Z,6.70
2023-01-26T18:45:01.029Z,6.37
2023-01-26T18:50:04.599Z,6.45
2023-01-26T18:55:08.677Z,5.93
2023-01-26T19:00:11.522Z,5.47
2023-01-26T19:05:14.053Z,6.50
2023-01-26T19:10:16.762Z,5.50
2023-01-26T19:15:41.125Z,6.23
2023-01-26T19:20:43.426Z,6.47
2023-01-26T19:25:45.749Z,6.30
2023-01-26T19:30:48.131Z,5.87
2023-01-26T19:35:51.232Z,6.00
2023-01-26T19:40:53.439Z,7.03
2023-01-26T19:45:57.290Z,7.17
2023-01-26T19:51:14.055Z,8.03
2023-01-26T19:56:24.805Z,7.53
2023-01-26T20:01:28.173Z,7.53
2023-01-26T20:06:32.774Z,6.73
2023-01-26T20:11:35.073Z,6.30
2023-01-26T20:16:37.863Z,6.43
2023-01-26T20:21:40.625Z,7.10
2023-01-26T20:26:46.537Z,7.73
2023-01-26T20:31:49.794Z,8.10
2023-01-26T20:36:54.821Z,7.83
2023-01-26T20:41:57.106Z,7.27
2023-01-26T20:46:59.457Z,6.67
2023-01-26T20:52:02.508Z,7.93
2023-01-26T20:57:04.653Z,7.20
2023-01-26T21:02:07.214Z,6.73
2023-01-26T21:07:09.851Z,6.83
2023-01-26T21:12:12.027Z,7.07
2023-01-26T21:17:15.829Z,7.03
2023-01-26T21:22:17.957Z,6.13
2023-01-26T21:27:20.132Z,6.23
2023-01-26T21:32:22.430Z,6.17
2023-01-26T21:37:24.679Z,6.53
2023-01-26T21:42:26.794Z,6.40
2023-01-26T21:47:28.878Z,6.83
2023-01-26T21:52:49.554Z,7.43
2023-01-26T21:58:10.047Z,5.63
2023-01-26T22:03:13.472Z,7.47
2023-01-26T22:08:15.617Z,6.37
2023-01-26T22:13:17.695Z,6.60
2023-01-26T22:18:19.788Z,7.47
2023-01-26T22:23:22.635Z,6.73
2023-01-26T22:28:24.968Z,6.67
2023-01-26T22:33:27.459Z,7.50
2023-01-26T22:38:29.653Z,8.63
2023-01-26T22:43:32.604Z,7.07
2023-01-26T22:48:35.126Z,6.73
2023-01-26T22:53:37.296Z,7.50
2023-01-26T22:58:56.715Z,7.50
2023-01-26T23:04:01.289Z,6.13
2023-01-26T23:09:04.933Z,8.00
2023-01-26T23:14:07.135Z,6.63
2023-01-26T23:19:09.355Z,6.53
2023-01-26T23:24:14.756Z,6.83
2023-01-26T23:29:41.308Z,6.53
2023-01-26T23:34:43.444Z,6.83
2023-01-26T23:39:45.660Z,5.33
2023-01-26T23:44:47.854Z,6.57
2023-01-26T23:49:49.962Z,5.40
2023-01-26T23:54:52.102Z,6.80
2023-01-26T23:59:54.358Z,5.07
